Latest Weather Observations for Launceston Airport

IDT60801

Issued at 4:31 pm EDT Tuesday 9 February 2016 (issued every 30 minutes, with the page automatically refreshed every 10 minutes)

About weather observations | Map of weather stations | Latest weather observations for TAS | Other Formats
Station Details ID: 091311 Name: LAUNCESTON AIRPORT Lat: -41.55 Lon: 147.21 Height: 166.9 m
Data from the previous 72 hours. | See also: Recent months at Launceston Airport
Date/Time
EDT
Temp
°C
App
Temp
°C
Dew
Point
Rel
Hum
%
Delta-T
°C
Wind Press
QNH
hPa
Press
MSL
hPa
Rain
since 9 am
mm
Dir
 
Spd
km/h
Gust
km/h
Spd
kts
Gust
kts
09/04:30pm 25.4 19.4 10.8 40 8.2 N 33 46 18 25 1016.6 1016.2 0.0
09/04:00pm 26.2 20.1 11.9 41 8.2 NNW 35 44 19 24 1016.8 1016.4 0.0
09/03:30pm 24.9 19.2 11.1 42 7.8 NNW 32 43 17 23 1017.5 1017.2 0.0
09/03:00pm 26.8 21.7 13.2 43 8.0 NNW 32 43 17 23 1017.8 1017.5 0.0
09/02:30pm 25.8 20.7 13.0 45 7.5 NNW 32 43 17 23 1018.3 1017.9 0.0
09/02:00pm 26.1 21.2 13.6 46 7.4 NNW 32 43 17 23 1018.5 1018.1 0.0
09/01:30pm 25.7 21.8 12.2 43 7.8 NNW 24 37 13 20 1018.7 1018.3 0.0
09/01:00pm 25.5 21.2 10.9 40 8.2 NNW 24 35 13 19 1019.0 1018.6 0.0
09/12:30pm 24.9 22.0 12.2 45 7.3 NNW 19 30 10 16 1019.7 1019.3 0.0
09/12:00pm 24.6 22.9 13.5 50 6.5 NNW 15 32 8 17 1020.1 1019.7 0.0
09/11:30am 23.2 22.0 13.9 56 5.5 NW 13 24 7 13 1020.6 1020.2 0.0
09/11:00am 22.6 21.3 13.7 57 5.2 N 13 19 7 10 1020.9 1020.5 0.0
09/10:30am 20.8 20.0 10.9 53 5.5 WSW 6 9 3 5 1021.1 1020.7 0.0
09/10:00am 19.8 18.2 10.2 54 5.2 S 9 13 5 7 1021.4 1021.0 0.0
09/09:30am 18.9 16.7 9.4 54 5.0 SSW 11 13 6 7 1021.7 1021.3 0.0
09/09:00am 18.2 15.5 9.0 55 4.8 S 13 17 7 9 1021.7 1021.3 0.0
09/08:30am 17.7 14.3 7.7 52 5.1 S 15 19 8 10 1021.6 1021.2 0.0
09/08:00am 17.1 14.1 7.5 53 4.8 S 13 17 7 9 1021.4 1021.0 0.0
09/07:30am 16.7 13.2 7.1 53 4.8 S 15 19 8 10 1021.2 1020.8 0.0
09/07:00am 16.6 13.5 7.3 54 4.7 S 13 17 7 9 1021.2 1020.8 0.0
09/06:30am 16.6 13.6 7.5 55 4.6 SSW 13 17 7 9 1021.0 1020.6 0.0
09/06:00am 16.8 13.3 7.4 54 4.7 S 15 19 8 10 1020.8 1020.4 0.0
09/05:30am 16.8 13.3 7.4 54 4.7 S 15 20 8 11 1020.6 1020.2 0.0
09/05:00am 16.7 12.9 7.4 54 4.7 S 17 22 9 12 1020.4 1020.0 0.0
09/04:30am 16.1 12.3 7.6 57 4.3 SSE 17 24 9 13 1020.2 1019.8 0.0
09/04:00am 16.5 12.1 7.4 55 4.6 SSE 20 30 11 16 1020.2 1019.8 0.0
09/03:30am 16.8 11.6 7.4 54 4.7 SSE 24 32 13 17 1020.3 1019.9 0.0
09/03:00am 16.7 11.7 7.9 56 4.5 SSE 24 30 13 16 1020.2 1019.8 0.0
09/02:30am 16.4 11.0 8.1 58 4.2 SSE 26 32 14 17 1020.2 1019.8 0.0
09/02:00am 16.5 10.7 8.0 57 4.3 SSE 28 35 15 19 1020.1 1019.7 0.0
09/01:30am 16.5 10.7 8.0 57 4.3 SSE 28 41 15 22 1020.3 1019.9 0.0
09/01:00am 17.1 11.4 8.5 57 4.4 SSE 28 41 15 22 1020.3 1019.9 0.0
09/12:30am 17.5 12.1 9.4 59 4.3 SSE 28 35 15 19 1020.4 1020.0 0.0
09/12:00am 17.9 14.1 11.2 65 3.7 SSE 22 30 12 16 1020.1 1019.7 0.0
 
Date/Time
EDT
Temp
°C
App
Temp
°C
Dew
Point
Rel
Hum
%
Delta-T
°C
Wind Press
QNH
hPa
Press
MSL
hPa
Rain
since 9 am
mm
Dir
 
Spd
km/h
Gust
km/h
Spd
kts
Gust
kts
08/11:30pm 18.4 15.7 14.5 78 2.3 SSE 22 28 12 15 1020.0 1019.6 0.0
08/11:00pm 19.2 16.2 13.6 70 3.2 SSE 22 33 12 18 1019.9 1019.5 0.0
08/10:30pm 19.9 15.3 13.6 67 3.6 SSE 30 39 16 21 1019.8 1019.4 0.0
08/10:00pm 20.4 17.1 11.6 57 4.9 SSE 20 24 11 13 1019.4 1019.0 0.0
08/09:30pm 22.0 17.5 10.2 47 6.5 SE 24 32 13 17 1019.1 1018.7 0.0
08/09:00pm 22.8 19.2 9.9 44 7.1 SE 19 28 10 15 1018.4 1018.0 0.0
08/08:30pm 24.0 19.7 9.2 39 8.1 SE 22 28 12 15 1017.8 1017.5 0.0
08/08:00pm 24.5 22.2 11.8 45 7.2 ESE 15 20 8 11 1017.2 1016.9 0.0
08/07:30pm 25.1 21.8 11.6 42 7.7 NW 20 24 11 13 1016.4 1016.0 0.0
08/07:00pm 26.0 22.9 11.7 41 8.2 NNW 19 24 10 13 1016.2 1015.8 0.0
08/06:30pm 27.0 24.0 11.9 39 8.7 N 19 24 10 13 1015.9 1015.5 0.0
08/06:00pm 28.1 26.5 8.9 30 10.6 W 7 11 4 6 1015.8 1015.4 0.0
08/05:30pm 28.2 26.2 8.5 29 10.8 SSW 9 15 5 8 1015.9 1015.5 0.0
08/05:00pm 28.7 26.2 8.4 28 11.2 SSW 11 20 6 11 1016.1 1015.7 0.0
08/04:30pm 28.2 25.3 8.0 28 11.0 SW 13 20 7 11 1016.2 1015.8 0.0
08/04:00pm 28.2 25.9 9.0 30 10.6 WNW 11 20 6 11 1016.3 1015.9 0.0
08/03:30pm 27.5 25.6 8.9 31 10.3 SSW 9 15 5 8 1016.6 1016.2 0.0
08/03:00pm 26.8 24.7 9.6 34 9.6 SW 11 17 6 9 1016.9 1016.5 0.0
08/02:30pm 26.7 24.7 8.6 32 9.9 SSW 9 15 5 8 1017.0 1016.6 0.0
08/02:00pm 26.1 23.4 9.0 34 9.4 SSW 13 22 7 12 1017.3 1017.0 0.0
08/01:30pm 25.7 23.1 9.5 36 9.0 S 13 24 7 13 1017.6 1017.3 0.0
08/01:00pm 25.9 23.8 8.4 33 9.5 WSW 9 17 5 9 1017.7 1017.4 0.0
08/12:30pm 24.4 23.2 10.3 41 7.8 WSW 7 11 4 6 1017.8 1017.5 0.0
08/12:00pm 23.9 23.4 12.8 49 6.4 WSW 7 11 4 6 1018.0 1017.7 0.0
08/11:30am 22.8 22.3 12.1 51 6.1 SSW 6 11 3 6 1018.3 1017.9 0.0
08/11:00am 21.1 20.0 13.0 60 4.6 WSW 11 17 6 9 1018.6 1018.2 0.0
08/10:30am 20.8 20.2 13.5 63 4.2 W 9 15 5 8 1018.9 1018.5 0.0
08/10:00am 20.8 20.8 13.7 64 4.1 W 6 11 3 6 1018.9 1018.5 0.0
08/09:30am 19.3 18.8 15.0 76 2.5 W 11 15 6 8 1018.8 1018.4 0.0
08/09:21am 19.3 19.3 15.2 77 2.4 WSW 9 15 5 8 1018.8 1018.4 0.0
08/09:03am 19.3 19.6 15.0 76 2.5 NW 7 11 4 6 1018.8 1018.4 0.0
08/09:00am 19.3 19.5 14.8 75 2.6 NW 7 13 4 7 1018.8 1018.4 0.0
08/08:30am 18.6 19.7 15.5 82 1.8 N 4 7 2 4 1018.8 1018.4 0.0
08/08:00am 18.1 18.6 15.5 85 1.5 N 7 9 4 5 1018.6 1018.2 0.0
08/07:30am 17.5 18.0 15.5 88 1.2 NNE 7 9 4 5 1018.4 1018.0 0.0
08/07:00am 17.3 17.3 15.3 88 1.2 N 9 11 5 6 1018.3 1017.9 0.0
08/06:30am 17.3 17.3 15.3 88 1.2 N 9 13 5 7 1018.0 1017.7 0.0
08/06:06am 17.3 16.9 15.3 88 1.2 N 11 15 6 8 1017.8 1017.5 0.0
08/06:00am 17.2 16.8 15.2 88 1.2 N 11 15 6 8 1017.8 1017.5 0.0
08/05:45am 17.2 16.8 15.2 88 1.2 N 11 13 6 7 1017.6 1017.3 0.0
08/05:30am 17.2 16.8 15.2 88 1.2 N 11 13 6 7 1017.5 1017.2 0.0
08/05:04am 17.2 16.4 15.2 88 1.2 N 13 17 7 9 1017.6 1017.3 0.0
08/05:00am 17.2 16.4 15.2 88 1.2 N 13 17 7 9 1017.5 1017.2 0.0
08/04:30am 17.4 16.6 15.0 86 1.4 N 13 17 7 9 1017.7 1017.4 0.0
08/04:00am 17.6 17.1 15.0 85 1.5 N 11 15 6 8 1017.7 1017.4 0.0
08/03:37am 17.5 17.5 15.1 86 1.4 NNW 9 13 5 7 1017.9 1017.6 0.0
08/03:30am 17.5 17.5 15.1 86 1.4 NW 9 13 5 7 1017.9 1017.6 0.0
08/03:18am 17.6 16.8 15.2 86 1.4 NNW 13 17 7 9 1018.0 1017.7 0.0
08/03:00am 17.8 17.3 14.9 83 1.7 N 11 13 6 7 1017.9 1017.6 0.0
08/02:42am 17.6 17.5 14.9 84 1.6 N 9 13 5 7 1017.9 1017.6 0.0
08/02:30am 17.2 16.9 14.5 84 1.6 N 9 13 5 7 1017.9 1017.6 0.0
08/02:09am 17.7 17.2 15.0 84 1.6 NNW 11 13 6 7 1018.3 1017.9 0.0
08/02:00am 17.5 17.0 15.0 85 1.5 NNW 11 13 6 7 1018.3 1017.9 0.0
08/01:30am 17.4 16.4 14.7 84 1.6 N 13 17 7 9 1018.2 1017.8 0.0
08/01:02am 17.3 15.9 14.4 83 1.7 N 15 19 8 10 1018.0 1017.7 0.0
08/01:00am 17.4 15.9 14.3 82 1.8 N 15 19 8 10 1018.0 1017.7 0.0
08/12:30am 17.7 16.3 14.4 81 1.9 N 15 19 8 10 1018.3 1017.9 0.0
08/12:00am 17.3 15.9 14.6 84 1.6 N 15 19 8 10 1018.3 1017.9 0.0
 
Date/Time
EDT
Temp
°C
App
Temp
°C
Dew
Point
Rel
Hum
%
Delta-T
°C
Wind Press
QNH
hPa
Press
MSL
hPa
Rain
since 9 am
mm
Dir
 
Spd
km/h
Gust
km/h
Spd
kts
Gust
kts
07/11:30pm 17.1 15.5 14.0 82 1.8 N 15 17 8 9 1018.3 1017.9 0.0
07/11:00pm 17.4 15.8 13.9 80 2.0 N 15 20 8 11 1018.3 1017.9 0.0
07/10:30pm 17.9 15.6 14.0 78 2.2 N 19 26 10 14 1018.2 1017.8 0.0
07/10:00pm 18.3 15.8 14.0 76 2.5 N 20 30 11 16 1018.0 1017.7 0.0
07/09:30pm 18.6 15.7 13.9 74 2.7 NNW 22 30 12 16 1017.7 1017.4 0.0
07/09:00pm 19.2 16.6 13.2 68 3.4 NNW 19 28 10 15 1017.4 1017.1 0.0
07/08:30pm 19.9 16.7 13.1 65 3.9 NNW 22 28 12 15 1017.0 1016.6 0.0
07/08:00pm 20.9 16.5 12.8 60 4.6 NNW 28 35 15 19 1016.5 1016.1 0.0
07/07:30pm 22.2 17.8 13.0 56 5.3 NNW 28 35 15 19 1016.1 1015.7 0.0
07/07:00pm 23.1 18.6 12.7 52 6.0 NNW 28 35 15 19 1015.8 1015.4 0.0
07/06:30pm 23.8 19.4 12.8 50 6.4 NNW 28 37 15 20 1015.7 1015.3 0.0
07/06:00pm 24.7 20.2 12.6 47 7.0 NNW 28 35 15 19 1015.6 1015.2 0.0
07/05:30pm 25.2 20.5 12.1 44 7.5 NNW 28 37 15 20 1015.6 1015.2 0.0
07/05:00pm 26.2 22.0 12.3 42 8.1 NNW 26 35 14 19 1015.5 1015.1 0.0
07/04:30pm 26.6 22.9 12.6 42 8.2 NNW 24 30 13 16 1015.6 1015.2 0.0
07/04:00pm 27.4 24.2 11.8 38 9.0 N 20 30 11 16 1015.7 1015.3 0.0
07/03:30pm 26.4 23.0 10.5 37 9.0 NW 19 32 10 17 1016.1 1015.7 0.0
07/03:00pm 26.0 24.0 11.4 40 8.3 NW 13 24 7 13 1016.3 1015.9 0.0
07/02:30pm 25.6 23.7 11.7 42 8.0 NW 13 20 7 11 1016.6 1016.2 0.0
07/02:00pm 25.2 23.2 11.4 42 7.8 NW 13 22 7 12 1016.8 1016.4 0.0
07/01:30pm 25.4 23.4 11.6 42 7.9 NW 13 24 7 13 1017.1 1016.8 0.0
07/01:00pm 22.9 21.6 10.0 44 7.1 NNW 7 17 4 9 1017.4 1017.1 0.0
07/12:30pm 23.7 21.8 11.7 47 6.8 N 13 20 7 11 1017.9 1017.6 0.0
07/12:00pm 22.1 19.9 10.9 49 6.2 NE 13 20 7 11 1018.3 1017.9 0.0
07/11:30am 21.8 19.5 10.6 49 6.2 N 13 20 7 11 1018.3 1017.9 0.0
07/11:00am 21.6 20.0 10.1 48 6.3 NNW 9 17 5 9 1018.6 1018.2 0.0
07/10:30am 21.9 19.9 11.6 52 5.8 N 13 17 7 9 1018.7 1018.3 0.0
07/10:00am 20.8 18.7 11.2 54 5.3 N 13 20 7 11 1018.9 1018.5 0.0
07/09:30am 19.9 18.9 12.4 62 4.2 NNW 9 13 5 7 1019.0 1018.6 0.0
07/09:00am 19.2 18.8 12.9 67 3.6 N 7 11 4 6 1019.1 1018.7 0.0
07/08:30am 18.6 18.4 13.7 73 2.8 NNW 7 11 4 6 1019.1 1018.7 0.0
07/08:00am 18.3 18.2 14.0 76 2.5 NW 7 9 4 5 1018.9 1018.5 0.0
07/07:30am 18.0 18.0 14.1 78 2.3 NW 7 9 4 5 1018.6 1018.2 0.0
07/07:00am 17.4 17.4 14.3 82 1.8 N 7 9 4 5 1018.4 1018.0 0.0
07/06:30am 17.2 16.8 14.1 82 1.8 N 9 9 5 5 1018.0 1017.7 0.0
07/06:00am 17.3 17.2 14.0 81 1.9 NNW 7 11 4 6 1017.8 1017.5 0.0
07/05:30am 17.4 17.0 14.1 81 1.9 NW 9 13 5 7 1017.5 1017.2 0.0
07/05:00am 17.3 16.9 14.0 81 1.9 NNW 9 11 5 6 1017.3 1017.0 0.0
07/04:30am 17.1 17.0 14.0 82 1.8 N 7 9 4 5 1017.4 1017.1 0.0
07/04:00am 17.4 16.5 13.7 79 2.1 NNW 11 13 6 7 1017.7 1017.4 0.0
07/03:30am 17.7 16.8 13.8 78 2.2 NW 11 15 6 8 1018.0 1017.7 0.0
07/03:00am 17.6 16.8 13.9 79 2.1 NW 11 13 6 7 1018.0 1017.7 0.0
07/02:30am 17.8 16.4 13.5 76 2.5 NW 13 19 7 10 1018.2 1017.8 0.0
07/02:00am 17.8 15.5 13.1 74 2.7 NNW 17 22 9 12 1018.2 1017.8 0.0
07/01:30am 18.2 16.1 13.7 75 2.6 NW 17 20 9 11 1018.5 1018.1 0.0
07/01:00am 18.2 16.1 13.7 75 2.6 NW 17 20 9 11 1018.5 1018.1 0.0
07/12:30am 17.9 15.9 13.8 77 2.4 NW 17 22 9 12 1018.6 1018.2 0.0
07/12:00am 17.6 15.1 13.5 77 2.3 NW 19 22 10 12 1018.6 1018.2 0.0
 
Date/Time
EDT
Temp
°C
App
Temp
°C
Dew
Point
Rel
Hum
%
Delta-T
°C
Wind Press
QNH
hPa
Press
MSL
hPa
Rain
since 9 am
mm
Dir
 
Spd
km/h
Gust
km/h
Spd
kts
Gust
kts
06/11:30pm 16.9 14.7 13.2 79 2.1 NNW 17 22 9 12 1018.8 1018.4 0.0
06/11:00pm 17.7 15.2 13.4 76 2.4 NW 19 24 10 13 1018.8 1018.4 0.0
06/10:30pm 17.7 14.9 13.2 75 2.6 NW 20 24 11 13 1018.8 1018.4 0.0
06/10:00pm 18.3 15.1 13.0 71 3.0 NW 22 28 12 15 1019.0 1018.6 0.0
06/09:30pm 19.0 14.9 12.7 67 3.6 NW 26 32 14 17 1018.7 1018.3 0.0
06/09:00pm 19.3 16.0 12.8 66 3.7 NNW 22 30 12 16 1018.0 1017.7 0.0
06/08:30pm 20.5 16.3 12.5 60 4.5 NW 26 33 14 18 1017.7 1017.4 0.0
06/08:00pm 21.3 16.8 12.7 58 4.9 NW 28 33 15 18 1017.4 1017.1 0.0
06/07:30pm 22.5 18.8 12.7 54 5.6 NNW 24 33 13 18 1017.4 1017.1 0.0
06/07:00pm 23.3 18.4 12.6 51 6.2 NW 30 35 16 19 1017.1 1016.8 0.0
06/06:30pm 24.1 19.4 12.1 47 6.9 NW 28 37 15 20 1017.0 1016.6 0.0
06/06:00pm 24.6 20.6 11.9 45 7.3 NW 24 33 13 18 1016.9 1016.5 0.0
06/05:30pm 24.9 20.8 11.5 43 7.6 NW 24 33 13 18 1017.0 1016.6 0.0
06/05:00pm 25.3 21.2 11.5 42 7.9 NW 24 33 13 18 1017.2 1016.9 0.0

Other Formats:

Comma delimited format used in spreadsheet applications
http://www.bom.gov.au/fwo/IDT60801/IDT60801.95966.axf

JavaScript Object Notation format (JSON) in row-major order
http://www.bom.gov.au/fwo/IDT60801/IDT60801.95966.json